Time;durP1;ratioP1;P1;durP2;ratioP2;P2;SDS_P1;SDS_P2;PMS_P1;PMS_P2;Temp;Humidity;BMP_temperature;BMP_pressure;BME280_temperature;BME280_humidity;BME280_pressure;Samples;Min_cycle;Max_cycle;Signal;HPM_P1;HPM_P2
2023/08/23 00:00:44;;;;;;;7.63;6.43;;;20.60;85.50;;;20.64;72.01;98207.84;4942093;29;20459;-70
2023/08/23 00:03:12;;;;;;;7.07;6.47;;;20.60;85.60;;;20.59;72.33;98205.13;4943883;29;20456;-70
2023/08/23 00:05:40;;;;;;;7.70;6.30;;;20.50;85.90;;;20.55;72.87;98203.19;4937390;29;20781;-71
2023/08/23 00:08:07;;;;;;;8.93;6.83;;;20.50;86.30;;;20.38;73.58;98205.13;4938212;29;20531;-71
2023/08/23 00:10:34;;;;;;;10.47;6.57;;;20.30;86.60;;;20.29;73.99;98212.28;4936157;29;20468;-70
2023/08/23 00:13:01;;;;;;;7.10;6.60;;;20.20;87.00;;;20.32;74.30;98205.41;4963145;28;20460;-70
2023/08/23 00:15:29;;;;;;;8.20;7.40;;;20.20;87.50;;;20.33;74.20;98202.38;4950905;28;20447;-70
2023/08/23 00:17:57;;;;;;;7.33;6.73;;;20.20;87.60;;;20.45;73.16;98199.34;4935994;29;20464;-70
2023/08/23 00:20:25;;;;;;;9.27;7.07;;;20.30;87.10;;;20.35;73.91;98193.91;4935676;29;20463;-71
2023/08/23 00:22:52;;;;;;;7.20;6.60;;;20.30;87.30;;;20.20;74.88;98192.81;4950956;28;20970;-70
2023/08/23 00:25:19;;;;;;;6.87;6.37;;;20.10;87.60;;;20.19;75.09;98191.16;4950619;29;20876;-71
2023/08/23 00:27:46;;;;;;;7.40;6.70;;;20.00;88.10;;;20.19;74.83;98195.81;4955347;28;20484;-71
2023/08/23 00:30:14;;;;;;;7.83;7.10;;;20.00;88.30;;;20.05;75.49;98196.34;4953624;29;20520;-71
2023/08/23 00:32:41;;;;;;;6.90;6.30;;;20.00;88.40;;;20.11;75.61;98188.94;4940420;28;20473;-72
2023/08/23 00:35:08;;;;;;;7.70;7.00;;;19.90;88.80;;;20.17;75.03;98193.34;4934521;29;21001;-71
2023/08/23 00:37:37;;;;;;;8.40;7.60;;;20.00;89.00;;;20.26;74.57;98193.63;4935940;29;20459;-71
2023/08/23 00:40:08;;;;;;;8.30;7.43;;;20.10;88.60;;;20.25;74.60;98183.75;4941612;29;20461;-71
2023/08/23 00:42:35;;;;;;;7.73;6.90;;;20.10;88.30;;;20.19;74.59;98190.31;4935060;29;20953;-72
2023/08/23 00:45:02;;;;;;;8.63;7.77;;;20.10;88.40;;;20.08;74.74;98184.81;4958549;28;20946;-70
2023/08/23 00:47:30;;;;;;;7.93;7.20;;;20.00;88.50;;;19.98;75.69;98184.00;4969247;28;20448;-70
2023/08/23 00:49:57;;;;;;;7.73;6.93;;;19.80;88.90;;;19.93;76.07;98182.06;4938173;29;20466;-71
2023/08/23 00:52:25;;;;;;;8.00;7.30;;;19.80;89.40;;;19.99;76.10;98175.53;4960987;28;20470;-71
2023/08/23 00:54:53;;;;;;;8.63;7.93;;;19.80;89.50;;;19.91;76.21;98182.34;4935123;29;20462;-71
2023/08/23 00:57:22;;;;;;;8.17;7.37;;;19.80;89.70;;;19.85;76.55;98190.84;4960079;28;20477;-70
2023/08/23 00:59:49;;;;;;;8.57;7.77;;;19.70;89.80;;;19.81;77.12;98196.88;4942956;29;20482;-72
2023/08/23 01:02:16;;;;;;;9.47;7.50;;;19.60;90.10;;;19.81;77.58;98190.53;4948986;28;20974;-72
2023/08/23 01:04:44;;;;;;;8.53;7.73;;;19.60;90.40;;;19.75;77.98;98188.91;4948065;28;20467;-71
2023/08/23 01:07:16;;;;;;;8.60;7.80;;;19.60;90.60;;;19.70;77.89;98189.72;4938974;29;20455;-70
2023/08/23 01:09:52;;;;;;;9.50;8.70;;;19.50;90.70;;;19.67;78.12;98184.78;4947496;29;20468;-70
2023/08/23 01:12:30;;;;;;;8.30;7.60;;;19.50;90.90;;;19.66;78.97;98194.09;4951445;28;20945;-71
2023/08/23 01:15:03;;;;;;;8.07;7.27;;;19.50;91.20;;;19.62;79.51;98192.97;4948616;29;20517;-71
2023/08/23 01:17:33;;;;;;;8.20;7.47;;;19.40;91.50;;;19.59;79.91;98177.06;4946464;28;20950;-71
2023/08/23 01:20:00;;;;;;;8.40;7.67;;;19.50;91.80;;;19.80;79.38;98194.38;4940452;28;20544;-70
2023/08/23 01:22:31;;;;;;;8.60;7.90;;;19.60;91.80;;;19.74;79.25;98196.28;4949498;29;20531;-70
2023/08/23 01:25:00;;;;;;;8.37;7.57;;;19.50;91.60;;;19.78;78.98;98191.09;4944949;29;20605;-70
2023/08/23 01:27:28;;;;;;;9.10;7.83;;;19.60;91.50;;;19.72;78.89;98198.47;4934643;29;20453;-69
2023/08/23 01:29:55;;;;;;;9.33;7.80;;;19.60;91.40;;;19.91;77.73;98195.22;4934486;29;20851;-71
2023/08/23 01:32:34;;;;;;;9.87;8.63;;;19.70;91.00;;;19.78;78.81;98191.91;4931546;29;20547;-71
2023/08/23 01:35:12;;;;;;;8.90;8.10;;;19.70;91.20;;;19.76;79.14;98199.56;4934536;29;20456;-70
2023/08/23 01:37:41;;;;;;;8.30;7.50;;;19.60;91.40;;;19.36;79.60;98136.19;4943184;29;20462;-70
2023/08/23 01:40:12;;;;;;;9.13;8.33;;;19.60;91.70;;;19.59;80.31;98183.41;4933110;29;21016;-70
2023/08/23 01:42:40;;;;;;;9.20;8.50;;;19.50;91.90;;;19.57;80.69;98192.97;4933807;29;20887;-71
2023/08/23 01:45:09;;;;;;;8.23;7.53;;;19.40;92.20;;;19.54;81.00;98186.94;4947964;28;20813;-70
2023/08/23 01:47:36;;;;;;;10.60;7.63;;;19.40;92.50;;;19.49;81.34;98189.69;4934317;29;20470;-70
2023/08/23 01:50:04;;;;;;;8.60;7.70;;;19.30;92.80;;;19.40;81.93;98185.81;4934696;29;20484;-70
2023/08/23 01:52:31;;;;;;;8.43;7.63;;;19.30;93.00;;;19.36;82.22;98184.69;4944965;29;20443;-70
2023/08/23 01:54:59;;;;;;;9.23;8.43;;;19.20;93.20;;;19.38;82.10;98188.00;4945932;29;20473;-70
2023/08/23 01:57:27;;;;;;;8.60;7.90;;;19.20;93.20;;;19.38;82.39;98182.50;4934335;29;21166;-70
2023/08/23 01:59:56;;;;;;;9.73;8.67;;;19.20;93.40;;;19.28;83.29;98179.72;4952585;28;20523;-70
2023/08/23 02:02:23;;;;;;;9.07;8.20;;;19.20;93.60;;;19.33;84.14;98185.22;4947591;29;20458;-71
2023/08/23 02:04:50;;;;;;;10.67;9.53;;;19.20;94.10;;;19.13;84.40;98189.53;4946974;29;20474;-71
2023/08/23 02:07:17;;;;;;;8.80;8.10;;;19.10;94.10;;;19.04;85.09;98199.38;4938810;29;20949;-71
2023/08/23 02:09:45;;;;;;;11.10;9.90;;;19.10;94.30;;;19.04;85.06;98193.88;4934017;29;20561;-70
2023/08/23 02:12:12;;;;;;;11.63;9.70;;;19.00;94.50;;;19.02;85.27;98190.56;4947612;29;20585;-71
2023/08/23 02:14:41;;;;;;;10.57;9.30;;;19.00;94.50;;;18.92;85.92;98197.63;4954727;28;20462;-71
2023/08/23 02:17:08;;;;;;;9.90;9.00;;;19.00;94.60;;;18.91;86.02;98195.16;4942722;29;20453;-71
2023/08/23 02:19:35;;;;;;;9.73;8.73;;;18.90;94.70;;;19.01;85.45;98197.97;4952967;28;20919;-70
2023/08/23 02:22:02;;;;;;;11.57;10.57;;;18.90;94.90;;;18.98;85.25;98199.28;4936343;29;20869;-71
2023/08/23 02:24:30;;;;;;;10.07;9.27;;;18.90;94.60;;;18.94;85.47;98206.41;4948397;28;20463;-71
2023/08/23 02:26:57;;;;;;;10.27;9.23;;;18.90;94.80;;;19.05;84.79;98190.88;4933716;29;20459;-70
2023/08/23 02:29:24;;;;;;;11.50;10.30;;;19.00;94.70;;;18.75;84.70;98153.22;4950815;28;20525;-70
2023/08/23 02:31:52;;;;;;;10.43;9.63;;;18.90;94.70;;;19.00;85.12;98198.22;4936301;28;20462;-70
2023/08/23 02:34:20;;;;;;;11.17;10.17;;;18.90;94.70;;;18.78;86.23;98200.00;4943494;29;20456;-70
2023/08/23 02:36:46;;;;;;;11.10;10.13;;;18.80;94.80;;;18.69;87.12;98196.13;4938821;29;20518;-70
2023/08/23 02:39:15;;;;;;;11.33;10.13;;;18.70;95.10;;;18.65;87.67;98189.53;4933241;29;20452;-71
2023/08/23 02:41:42;;;;;;;10.73;9.73;;;18.70;95.50;;;18.66;87.58;98183.78;4932785;29;21021;-71
2023/08/23 02:44:10;;;;;;;11.67;10.47;;;18.70;95.90;;;18.62;87.40;98188.16;4948204;28;20880;-70
2023/08/23 02:46:37;;;;;;;11.33;10.23;;;18.60;95.80;;;18.58;88.11;98189.78;4946630;28;20949;-71
2023/08/23 02:49:05;;;;;;;11.20;10.07;;;18.60;95.90;;;18.56;88.52;98194.66;4955642;28;20473;-70
2023/08/23 02:51:32;;;;;;;11.83;10.50;;;18.60;96.00;;;18.56;89.06;98194.66;4947644;28;20464;-71
2023/08/23 02:53:59;;;;;;;12.00;11.00;;;18.60;96.20;;;18.54;89.20;98196.84;4932021;29;20466;-70
2023/08/23 02:56:27;;;;;;;12.27;10.37;;;18.60;96.40;;;18.48;89.46;98192.44;4932981;29;20470;-70
2023/08/23 02:58:54;;;;;;;12.33;11.03;;;18.60;96.50;;;18.46;89.62;98183.69;4947473;28;20849;-70
2023/08/23 03:01:21;;;;;;;11.73;10.63;;;18.60;96.80;;;18.40;90.29;98191.81;4932207;29;21500;-71
2023/08/23 03:03:48;;;;;;;12.03;10.80;;;18.50;97.00;;;18.41;90.29;98190.75;4937474;29;20935;-70
2023/08/23 03:06:17;;;;;;;11.67;10.60;;;18.50;97.00;;;18.54;89.43;98196.84;4937009;29;20465;-71
2023/08/23 03:08:44;;;;;;;11.60;10.50;;;18.50;97.10;;;18.62;89.15;98193.63;4933094;29;20478;-70
2023/08/23 03:11:11;;;;;;;11.50;10.47;;;18.50;97.30;;;18.64;88.94;98191.44;4947212;28;21003;-70
2023/08/23 03:13:39;;;;;;;10.83;9.93;;;18.60;97.00;;;18.60;89.13;98203.19;4936069;29;20457;-70
2023/08/23 03:16:06;;;;;;;12.13;11.23;;;18.50;97.10;;;18.50;89.31;98190.25;4949561;28;20459;-70
2023/08/23 03:18:33;;;;;;;12.37;10.97;;;18.50;97.10;;;18.56;89.99;98191.94;4941669;29;20458;-71
2023/08/23 03:21:01;;;;;;;12.57;11.37;;;18.50;97.80;;;18.62;89.47;98187.31;4944079;28;20461;-70
2023/08/23 03:23:29;;;;;;;15.07;12.67;;;18.50;97.50;;;18.40;91.15;98180.88;4963419;28;20455;-70
2023/08/23 03:25:56;;;;;;;13.23;11.43;;;18.40;97.90;;;18.46;90.71;98189.97;4937138;28;20497;-70
2023/08/23 03:28:23;;;;;;;15.37;12.17;;;18.50;97.80;;;18.28;91.90;98188.47;4932724;29;20579;-71
2023/08/23 03:30:50;;;;;;;13.63;12.20;;;18.40;98.20;;;18.38;91.40;98201.41;4947440;28;20833;-72
2023/08/23 03:33:18;;;;;;;15.60;11.10;;;18.40;98.50;;;18.24;92.28;98207.31;4932269;29;20467;-71
2023/08/23 03:35:45;;;;;;;12.57;11.27;;;18.30;98.60;;;18.24;92.29;98201.84;4935589;29;20851;-71
2023/08/23 03:38:12;;;;;;;12.67;11.53;;;18.30;98.90;;;18.20;93.04;98213.56;4934524;28;20483;-70
2023/08/23 03:40:41;;;;;;;11.97;11.07;;;18.30;99.40;;;18.21;93.01;98201.53;4932983;29;20455;-69
2023/08/23 03:43:08;;;;;;;13.23;11.23;;;18.20;99.40;;;18.18;92.43;98200.13;4946698;28;20799;-71
2023/08/23 03:45:35;;;;;;;13.67;11.30;;;18.20;98.90;;;18.14;92.60;98206.41;4953768;28;20936;-70
2023/08/23 03:48:02;;;;;;;12.80;11.37;;;18.20;99.20;;;18.05;93.17;98201.41;4941108;29;20845;-72
2023/08/23 03:50:30;;;;;;;12.93;11.83;;;18.10;99.50;;;17.98;93.45;98198.84;4936681;29;21274;-71
2023/08/23 03:52:57;;;;;;;13.53;12.43;;;18.10;99.50;;;18.09;92.59;98201.72;4937178;29;20941;-71
2023/08/23 03:55:24;;;;;;;12.70;11.47;;;18.10;99.70;;;18.07;92.83;98188.28;4944890;29;20536;-70
2023/08/23 03:57:52;;;;;;;11.50;10.60;;;18.00;99.90;;;18.18;92.17;98199.31;4932710;29;20516;-70
2023/08/23 04:00:19;;;;;;;13.13;12.00;;;18.00;99.90;;;18.23;92.03;98196.63;4932298;29;20452;-70
2023/08/23 04:02:48;;;;;;;12.50;11.47;;;18.10;99.90;;;18.14;91.79;98192.75;4931721;29;20490;-70
2023/08/23 04:05:15;;;;;;;13.43;12.03;;;18.10;99.50;;;18.23;91.68;98197.47;4941742;29;20470;-70
2023/08/23 04:07:42;;;;;;;13.90;11.87;;;18.10;99.90;;;18.24;91.18;98192.81;4936602;29;20470;-71
2023/08/23 04:10:10;;;;;;;12.50;11.40;;;18.10;99.00;;;18.14;91.52;98206.41;4941429;28;20538;-71
2023/08/23 04:12:37;;;;;;;11.60;10.60;;;18.10;98.70;;;18.12;91.27;98199.28;4947735;29;20493;-71
2023/08/23 04:15:08;;;;;;;13.13;11.97;;;18.10;98.20;;;17.99;92.37;98205.16;4947486;28;20458;-69
2023/08/23 04:17:35;;;;;;;12.03;11.07;;;18.00;98.60;;;17.98;92.43;98203.50;4936049;29;20454;-70
2023/08/23 04:20:03;;;;;;;12.13;11.13;;;18.00;99.20;;;17.98;92.96;98206.25;4942064;29;20989;-70
2023/08/23 04:22:31;;;;;;;12.00;10.73;;;18.00;99.80;;;17.94;93.06;98214.13;4935130;29;20470;-70
2023/08/23 04:24:58;;;;;;;11.73;10.53;;;17.90;99.80;;;18.01;93.04;98203.00;4935821;29;20472;-70
2023/08/23 04:27:25;;;;;;;11.30;10.30;;;17.90;99.90;;;18.01;93.08;98208.44;4952344;28;20430;-70
2023/08/23 04:29:52;;;;;;;11.90;11.00;;;17.90;99.90;;;17.98;92.94;98214.44;4939232;29;20471;-71
2023/08/23 04:32:21;;;;;;;10.97;9.97;;;17.90;99.90;;;18.05;92.68;98219.72;4951450;28;20433;-71
2023/08/23 04:34:48;;;;;;;12.03;10.83;;;17.90;99.90;;;18.22;92.07;98222.31;4964214;28;20484;-70
2023/08/23 04:37:15;;;;;;;12.67;11.57;;;18.10;99.90;;;18.49;89.97;98210.50;4938023;28;20939;-71
2023/08/23 04:39:42;;;;;;;11.07;9.90;;;18.40;98.50;;;18.78;88.78;98218.34;4947224;29;20461;-71
2023/08/23 04:42:09;;;;;;;11.03;10.03;;;18.70;97.10;;;19.08;87.41;98211.44;4952715;29;20448;-70
2023/08/23 04:44:37;;;;;;;11.47;10.40;;;19.10;95.80;;;19.53;83.11;98215.44;4939150;29;20505;-70
2023/08/23 04:47:04;;;;;;;11.30;10.27;;;19.50;93.80;;;19.80;81.46;98205.34;4935631;29;20463;-71
2023/08/23 04:49:33;;;;;;;11.33;9.97;;;19.90;92.60;;;20.10;78.90;98210.09;4935544;29;20483;-70
2023/08/23 04:52:00;;;;;;;9.87;8.80;;;20.30;91.50;;;20.38;77.12;98210.59;4949422;28;20457;-71
2023/08/23 04:54:27;;;;;;;10.60;9.50;;;20.60;90.90;;;20.70;75.93;98205.06;4951119;28;21027;-71
2023/08/23 04:56:54;;;;;;;10.30;9.20;;;20.90;90.50;;;20.67;75.36;98196.31;4947558;28;20459;-71
2023/08/23 04:59:21;;;;;;;9.80;8.90;;;21.10;90.10;;;21.04;74.49;98209.97;4949290;28;20461;-71
2023/08/23 05:01:49;;;;;;;10.37;9.37;;;21.30;90.00;;;21.30;73.06;98207.94;4945276;29;20472;-70
2023/08/23 05:04:18;;;;;;;11.07;10.07;;;21.70;89.10;;;21.61;71.68;98212.47;4936507;28;20453;-70
2023/08/23 05:06:47;;;;;;;8.33;7.53;;;22.20;88.30;;;21.83;70.24;98219.53;4946986;28;20796;-71
2023/08/23 05:09:14;;;;;;;10.30;9.50;;;22.30;87.70;;;22.16;69.43;98217.09;4953461;28;20480;-70
2023/08/23 05:11:41;;;;;;;9.77;8.87;;;22.60;87.10;;;22.58;67.49;98217.59;4935511;29;20465;-70
2023/08/23 05:14:08;;;;;;;10.20;9.23;;;23.10;86.20;;;22.48;67.97;98216.59;4950424;28;20850;-69
2023/08/23 05:16:35;;;;;;;9.40;8.50;;;23.20;85.60;;;22.29;68.65;98218.34;4934549;29;21017;-70
2023/08/23 05:19:03;;;;;;;10.20;9.20;;;23.10;85.50;;;22.54;67.84;98217.38;4943382;29;20972;-71
2023/08/23 05:21:30;;;;;;;9.17;8.23;;;23.20;85.50;;;22.88;66.47;98215.63;4941737;29;20901;-71
2023/08/23 05:23:58;;;;;;;9.63;8.70;;;23.60;84.80;;;22.80;66.70;98219.03;4935063;29;20470;-71
2023/08/23 05:26:26;;;;;;;10.57;9.57;;;23.70;84.40;;;22.92;66.73;98217.50;4934608;29;20458;-69
2023/08/23 05:28:53;;;;;;;14.23;9.70;;;23.70;84.50;;;23.38;64.65;98223.63;4934856;29;21097;-70
2023/08/23 05:31:20;;;;;;;9.90;9.00;;;23.80;84.00;;;23.57;64.17;98220.06;4933882;29;20473;-71
2023/08/23 05:33:47;;;;;;;11.03;9.27;;;24.10;83.40;;;22.87;66.41;98219.50;4941463;29;20461;-69
2023/08/23 05:36:14;;;;;;;10.27;9.30;;;23.80;83.50;;;23.58;63.11;98219.78;4947667;28;20467;-70
2023/08/23 05:38:41;;;;;;;10.10;9.23;;;24.00;82.90;;;23.61;62.77;98223.91;4959100;28;20454;-71
2023/08/23 05:41:10;;;;;;;10.40;9.57;;;24.00;82.90;;;23.73;62.70;98218.78;4941370;29;20525;-70
2023/08/23 05:43:37;;;;;;;12.03;9.83;;;24.00;82.80;;;23.81;62.45;98230.25;4934129;29;20530;-70
2023/08/23 05:46:04;;;;;;;10.30;9.40;;;24.60;82.00;;;23.84;62.07;98229.63;4949195;28;20446;-70
2023/08/23 05:48:34;;;;;;;10.63;9.67;;;24.80;81.30;;;23.72;62.47;98228.13;4934352;29;20466;-71
2023/08/23 05:51:03;;;;;;;10.73;9.67;;;24.70;80.90;;;23.67;62.88;98233.72;4934357;29;20472;-69
2023/08/23 05:53:30;;;;;;;10.20;9.30;;;24.30;81.30;;;22.62;65.79;98227.72;4947336;28;20450;-71
2023/08/23 05:55:57;;;;;;;11.37;10.17;;;23.30;82.50;;;21.90;68.79;98226.34;4940274;29;20459;-71
2023/08/23 05:58:26;;;;;;;12.80;10.00;;;22.60;83.70;;;21.41;71.32;98229.91;4933840;29;20572;-70
2023/08/23 06:00:55;;;;;;;12.60;11.30;;;21.90;85.30;;;20.69;73.22;98181.47;4940677;29;20458;-70
2023/08/23 06:03:22;;;;;;;11.97;10.77;;;21.40;86.30;;;20.85;73.87;98229.81;4951992;29;20938;-70
2023/08/23 06:05:54;;;;;;;12.37;11.27;;;21.20;87.20;;;20.93;73.41;98234.72;4948264;29;20455;-70
2023/08/23 06:08:21;;;;;;;12.30;11.00;;;21.10;87.50;;;20.76;73.79;98226.75;4949413;29;20458;-70
2023/08/23 06:10:49;;;;;;;12.60;11.30;;;21.00;87.80;;;21.00;74.11;98236.34;4944742;29;20531;-69
2023/08/23 06:13:16;;;;;;;13.57;12.37;;;21.10;88.40;;;21.10;74.03;98241.81;4933376;29;20966;-70
2023/08/23 06:15:45;;;;;;;12.40;11.33;;;21.10;88.50;;;20.98;74.93;98239.38;4949079;28;20815;-70
2023/08/23 06:18:12;;;;;;;12.43;11.23;;;21.20;88.80;;;21.06;74.39;98235.25;4948293;28;20479;-71
2023/08/23 06:20:39;;;;;;;12.73;11.33;;;21.20;89.00;;;21.20;73.89;98233.56;4943636;29;20850;-70
2023/08/23 06:23:07;;;;;;;13.13;11.37;;;21.20;88.90;;;21.45;73.20;98236.47;4942356;29;20471;-70
2023/08/23 06:25:34;;;;;;;11.70;10.60;;;21.40;88.90;;;21.56;72.79;98235.31;4949722;28;20514;-70
2023/08/23 06:28:01;;;;;;;12.73;11.27;;;21.50;88.70;;;21.62;72.83;98230.63;4952781;28;20461;-71
2023/08/23 06:30:28;;;;;;;11.67;10.57;;;21.60;88.70;;;21.57;72.72;98238.88;4933131;29;20541;-71
2023/08/23 06:32:57;;;;;;;12.63;11.33;;;21.60;88.60;;;21.25;73.40;98240.97;4932691;29;20919;-72
2023/08/23 06:35:26;;;;;;;12.40;11.30;;;21.40;88.40;;;21.38;73.11;98247.75;4933256;29;20531;-71
2023/08/23 06:37:53;;;;;;;13.20;11.87;;;21.40;88.60;;;21.37;74.06;98252.41;4934842;29;20740;-71
2023/08/23 06:40:20;;;;;;;12.23;11.23;;;21.40;89.00;;;21.62;73.11;98244.38;4931892;29;20451;-70
2023/08/23 06:42:47;;;;;;;13.17;11.70;;;21.60;89.00;;;21.41;74.18;98244.44;4935761;29;20461;-71
2023/08/23 06:45:15;;;;;;;12.17;10.90;;;21.50;89.00;;;21.49;73.67;98248.53;4943033;28;20522;-70
2023/08/23 06:47:42;;;;;;;13.53;12.27;;;21.60;89.00;;;21.70;72.52;98238.28;4933312;29;20455;-70
2023/08/23 06:50:11;;;;;;;12.60;11.60;;;21.70;88.80;;;21.69;72.61;98236.66;4933452;29;20509;-71
2023/08/23 06:52:38;;;;;;;21.80;12.40;;;21.80;88.50;;;21.66;72.64;98237.22;4947227;28;20852;-70
2023/08/23 06:55:07;;;;;;;12.03;11.03;;;21.90;88.50;;;21.78;72.52;98234.97;4946435;28;20513;-70
2023/08/23 06:57:34;;;;;;;13.50;12.30;;;21.80;88.60;;;21.86;71.88;98235.44;4940688;28;20526;-71
2023/08/23 07:00:01;;;;;;;13.07;11.77;;;21.90;88.40;;;21.98;71.45;98238.69;4948297;29;20478;-70
2023/08/23 07:02:29;;;;;;;13.37;10.73;;;22.00;88.30;;;21.93;71.57;98230.47;4940413;28;20482;-69
2023/08/23 07:04:56;;;;;;;12.40;11.10;;;22.10;88.10;;;22.11;70.81;98231.69;4932015;29;20455;-71
2023/08/23 07:07:25;;;;;;;12.60;11.30;;;22.20;88.00;;;21.79;71.44;98236.59;4937132;29;20466;-70
2023/08/23 07:09:52;;;;;;;13.00;11.70;;;22.00;87.80;;;21.82;72.39;98237.13;4947623;28;20473;-70
2023/08/23 07:12:19;;;;;;;12.23;11.13;;;21.90;88.40;;;22.00;72.42;98235.66;4932263;29;20469;-70
2023/08/23 07:14:49;;;;;;;16.70;13.23;;;22.00;88.60;;;21.91;71.97;98236.25;4933104;29;20452;-71
2023/08/23 07:17:17;;;;;;;12.87;11.50;;;22.00;88.40;;;22.27;70.49;98237.09;4939623;29;20537;-70
2023/08/23 07:19:44;;;;;;;12.73;11.03;;;22.20;88.00;;;22.48;70.40;98237.78;4947161;28;20558;-71
2023/08/23 07:22:12;;;;;;;14.23;13.03;;;22.40;88.20;;;22.49;69.58;98243.00;4934238;28;20458;-71
2023/08/23 07:24:40;;;;;;;13.73;12.43;;;22.50;87.50;;;22.27;70.55;98246.19;4936282;29;20477;-70
2023/08/23 07:27:07;;;;;;;13.40;12.20;;;22.40;87.80;;;22.31;70.50;98252.75;4935520;28;20462;-72
2023/08/23 07:29:36;;;;;;;11.47;10.27;;;22.40;87.80;;;22.32;69.61;98242.56;4941214;29;20451;-71
2023/08/23 07:32:04;;;;;;;14.63;11.23;;;22.50;87.40;;;22.29;69.31;98243.97;4931569;29;20461;-71
2023/08/23 07:34:33;;;;;;;11.87;10.70;;;22.40;87.20;;;22.61;68.56;98256.38;4942044;28;20480;-71
2023/08/23 07:37:00;;;;;;;12.90;11.70;;;22.50;87.20;;;22.31;68.94;98186.69;4940995;29;20545;-70
2023/08/23 07:39:27;;;;;;;12.57;11.40;;;22.70;87.30;;;22.46;69.87;98262.81;4948738;29;20447;-71
2023/08/23 07:41:56;;;;;;;13.23;10.43;;;22.70;87.50;;;22.52;69.19;98258.13;4946469;28;20804;-70
2023/08/23 07:44:23;;;;;;;13.60;10.60;;;22.90;86.80;;;22.49;69.29;98265.03;4935653;29;20931;-71
2023/08/23 07:46:51;;;;;;;14.30;11.23;;;22.80;86.60;;;22.44;69.45;98266.97;4942713;29;20500;-70
2023/08/23 07:49:18;;;;;;;11.03;10.00;;;22.80;86.60;;;22.57;69.53;98258.06;4937946;28;20469;-71
2023/08/23 07:51:45;;;;;;;13.27;11.97;;;22.90;86.90;;;22.60;68.73;98264.94;4946623;29;20486;-70
2023/08/23 07:54:12;;;;;;;11.73;10.33;;;22.90;86.50;;;22.61;69.03;98250.88;4938554;28;20461;-70
2023/08/23 07:56:40;;;;;;;10.90;10.00;;;22.90;86.60;;;22.62;68.81;98258.03;4951317;29;20453;-71
2023/08/23 07:59:08;;;;;;;10.80;9.70;;;23.00;86.40;;;22.66;68.88;98250.00;4947000;28;20467;-71
2023/08/23 08:01:35;;;;;;;10.97;9.73;;;22.90;86.50;;;22.87;68.21;98258.91;4935862;29;20456;-71
2023/08/23 08:04:02;;;;;;;12.27;9.10;;;23.20;86.40;;;23.03;67.40;98265.06;4935027;29;20951;-70
2023/08/23 08:06:29;;;;;;;10.30;9.30;;;23.30;86.10;;;22.81;68.09;98259.22;4948739;29;20518;-70
2023/08/23 08:08:57;;;;;;;12.10;11.00;;;23.20;86.10;;;22.96;67.20;98263.75;4948924;29;20500;-70
2023/08/23 08:11:24;;;;;;;10.43;9.40;;;23.30;85.90;;;23.10;66.62;98269.41;4943827;29;20475;-71
2023/08/23 08:13:51;;;;;;;10.07;8.93;;;23.30;85.70;;;23.24;66.65;98275.03;4939480;29;20470;-70
2023/08/23 08:16:20;;;;;;;10.93;9.80;;;23.40;85.50;;;23.03;67.10;98269.75;4936553;29;20466;-72
2023/08/23 08:18:47;;;;;;;12.30;9.40;;;23.40;85.40;;;23.11;67.15;98274.63;4943739;29;20461;-70
2023/08/23 08:21:14;;;;;;;9.93;9.03;;;23.30;85.60;;;23.24;66.04;98277.78;4939773;28;20454;-72
2023/08/23 08:23:41;;;;;;;9.93;8.90;;;23.60;85.20;;;23.24;65.91;98277.78;4935577;29;20451;-70
2023/08/23 08:26:10;;;;;;;10.33;8.83;;;23.60;85.00;;;23.43;65.63;98270.44;4948930;29;20938;-72
2023/08/23 08:28:42;;;;;;;8.70;8.00;;;23.70;85.10;;;23.62;65.35;98266.91;4950853;28;20463;-73
2023/08/23 08:31:09;;;;;;;12.07;10.93;;;23.80;85.10;;;23.52;65.34;98261.50;4935317;29;20973;-71
2023/08/23 08:33:38;;;;;;;11.40;10.20;;;23.90;84.80;;;23.65;65.02;98271.81;4950456;29;20459;-70
2023/08/23 08:36:06;;;;;;;9.23;8.43;;;23.90;84.70;;;23.36;64.70;98203.81;4954703;28;20447;-70
2023/08/23 08:38:33;;;;;;;11.47;9.27;;;24.00;84.70;;;23.88;64.61;98274.81;4943177;28;20494;-70
2023/08/23 08:41:00;;;;;;;8.97;8.13;;;24.10;84.60;;;23.84;64.56;98268.25;4935214;29;20466;-72
2023/08/23 08:43:28;;;;;;;9.40;8.67;;;24.10;84.50;;;24.02;64.47;98267.47;4948164;29;20458;-70
2023/08/23 08:45:57;;;;;;;13.63;8.83;;;24.30;84.50;;;24.01;63.42;98271.31;4953016;28;20454;-71
2023/08/23 08:48:24;;;;;;;9.43;8.53;;;24.30;83.80;;;23.89;63.77;98271.75;4943865;28;20470;-71
2023/08/23 08:50:54;;;;;;;8.90;8.00;;;24.20;84.00;;;23.96;63.19;98276.06;4948925;29;21044;-71
2023/08/23 08:53:22;;;;;;;10.13;9.13;;;24.10;83.30;;;24.16;62.04;98270.31;4952388;28;20448;-72
2023/08/23 08:55:51;;;;;;;7.47;6.77;;;24.40;83.00;;;24.00;61.86;98272.44;4952681;28;20452;-71
2023/08/23 08:58:20;;;;;;;9.13;7.80;;;24.30;82.10;;;24.21;61.83;98272.19;4936833;29;20477;-70
2023/08/23 09:00:49;;;;;;;8.17;7.57;;;24.40;82.60;;;24.14;61.94;98272.56;4937722;29;20491;-71
2023/08/23 09:03:17;;;;;;;8.10;7.30;;;24.40;82.30;;;24.29;61.35;98267.91;4933582;29;20504;-70
2023/08/23 09:05:45;;;;;;;8.40;7.60;;;24.50;82.50;;;24.45;58.93;98265.72;4936873;29;20454;-72
2023/08/23 09:08:15;;;;;;;7.63;6.87;;;24.60;81.00;;;24.62;58.68;98265.97;4937439;28;20839;-71
2023/08/23 09:10:42;;;;;;;7.70;6.93;;;24.90;80.50;;;24.73;58.54;98276.84;4934871;29;20475;-72
2023/08/23 09:13:09;;;;;;;7.23;6.20;;;24.80;80.30;;;24.58;58.27;98220.75;4954211;28;20566;-70
2023/08/23 09:15:36;;;;;;;7.83;6.90;;;24.90;80.60;;;24.89;57.59;98269.97;4964137;28;20459;-70
2023/08/23 09:18:04;;;;;;;10.67;6.80;;;25.00;79.60;;;24.94;58.49;98263.53;4953968;29;20456;-72
2023/08/23 09:20:31;;;;;;;7.23;6.57;;;25.00;80.40;;;25.03;57.86;98258.09;4957157;28;20519;-71
2023/08/23 09:22:58;;;;;;;6.20;5.60;;;25.10;80.10;;;25.04;55.38;98276.31;4947865;28;20450;-70
2023/08/23 09:25:27;;;;;;;7.23;6.60;;;25.10;78.30;;;25.21;56.60;98274.91;4942401;29;20463;-71
2023/08/23 09:27:54;;;;;;;7.77;7.07;;;25.20;79.30;;;25.03;56.01;98285.75;4934763;29;20507;-71
2023/08/23 09:30:22;;;;;;;7.03;6.40;;;25.10;78.40;;;25.14;55.98;98272.53;4933944;29;20617;-70
2023/08/23 09:32:49;;;;;;;10.67;6.83;;;25.20;78.20;;;25.23;55.51;98278.19;4945844;29;20453;-71
2023/08/23 09:35:18;;;;;;;6.70;6.10;;;25.30;78.00;;;25.43;54.90;98269.50;4944262;28;20468;-71
2023/08/23 09:37:47;;;;;;;6.70;6.10;;;25.40;77.80;;;25.40;55.41;98267.34;4939184;29;20460;-71
2023/08/23 09:40:19;;;;;;;6.23;5.73;;;25.40;77.40;;;25.42;55.27;98276.16;4934189;29;20463;-71
2023/08/23 09:42:49;;;;;;;8.10;5.50;;;25.50;77.30;;;25.67;53.28;98268.47;4933589;29;20512;-70
2023/08/23 09:45:18;;;;;;;8.13;5.70;;;25.60;76.70;;;25.71;53.43;98279.75;4948133;29;20817;-71
2023/08/23 09:47:51;;;;;;;5.40;4.90;;;25.70;75.90;;;25.83;51.17;98273.66;4941970;29;20463;-70
2023/08/23 09:50:20;;;;;;;6.80;4.90;;;25.80;73.80;;;26.12;50.14;98283.53;4967636;28;20560;-70
2023/08/23 09:52:53;;;;;;;6.00;4.20;;;26.00;73.40;;;26.22;47.66;98277.81;4952688;28;20451;-69
2023/08/23 09:55:21;;;;;;;5.33;4.83;;;26.20;71.00;;;26.08;48.64;98285.31;4951561;28;20900;-70
2023/08/23 09:57:52;;;;;;;4.47;3.40;;;26.10;70.80;;;25.89;44.25;98273.25;4946866;29;20464;-72
2023/08/23 10:00:19;;;;;;;5.77;5.00;;;26.00;66.10;;;26.19;48.20;98272.91;4966051;28;20511;-72
2023/08/23 10:02:47;;;;;;;4.20;3.80;;;26.10;69.40;;;26.35;45.99;98276.09;4933390;29;20521;-72
2023/08/23 10:05:14;;;;;;;5.50;4.60;;;26.30;67.90;;;26.30;46.96;98270.69;4934634;29;20458;-71
2023/08/23 10:07:42;;;;;;;6.60;6.00;;;26.40;68.00;;;26.30;48.64;98271.50;4950250;28;20457;-70
2023/08/23 10:10:10;;;;;;;6.10;5.60;;;26.30;69.40;;;26.44;48.17;98270.63;4948678;29;20507;-71
2023/08/23 10:12:41;;;;;;;5.60;5.17;;;26.30;69.40;;;26.29;47.80;98253.25;4933563;29;20595;-72
2023/08/23 10:15:13;;;;;;;6.10;5.60;;;26.40;68.80;;;26.42;49.05;98273.72;4940674;29;20465;-71